createdAt,value
2018-09-04T00:01:32.895Z,19.63
2018-09-04T00:04:02.428Z,19.19
2018-09-04T00:06:31.695Z,19.65
2018-09-04T00:09:01.095Z,19.53
2018-09-04T00:11:31.206Z,19.48
2018-09-04T00:14:00.611Z,19.42
2018-09-04T00:16:30.009Z,19.50
2018-09-04T00:19:00.374Z,19.44
2018-09-04T00:21:30.010Z,19.36
2018-09-04T00:24:00.135Z,19.24
2018-09-04T00:26:29.627Z,19.32
2018-09-04T00:28:59.459Z,19.24
2018-09-04T00:31:29.241Z,19.27
2018-09-04T00:33:59.169Z,19.24
2018-09-04T00:36:28.563Z,19.28
2018-09-04T00:38:58.308Z,19.15
2018-09-04T00:41:27.759Z,19.12
2018-09-04T00:43:57.329Z,19.16
2018-09-04T00:46:26.765Z,19.02
2018-09-04T00:48:56.325Z,18.99
2018-09-04T00:51:25.809Z,18.97
2018-09-04T00:53:55.321Z,18.88
2018-09-04T00:56:25.588Z,18.89
2018-09-04T00:58:55.187Z,18.85
2018-09-04T01:01:25.485Z,18.84
2018-09-04T01:03:54.869Z,18.80
2018-09-04T01:06:24.294Z,18.75
2018-09-04T01:08:53.859Z,18.77
2018-09-04T01:11:23.430Z,18.71
2018-09-04T01:13:52.909Z,18.75
2018-09-04T01:16:22.347Z,18.77
2018-09-04T01:18:52.425Z,18.73
2018-09-04T01:21:22.354Z,18.69
2018-09-04T01:23:51.945Z,18.73
2018-09-04T01:26:21.511Z,18.80
2018-09-04T01:28:51.202Z,18.58
2018-09-04T01:31:20.798Z,18.55
2018-09-04T01:33:50.647Z,18.67
2018-09-04T01:36:20.225Z,18.65
2018-09-04T01:38:49.869Z,18.59
2018-09-04T01:41:19.302Z,18.63
2018-09-04T01:43:48.725Z,18.56
2018-09-04T01:46:18.430Z,18.57
2018-09-04T01:48:49.022Z,18.50
2018-09-04T01:51:18.717Z,18.48
2018-09-04T01:53:48.441Z,18.45
2018-09-04T01:56:17.861Z,18.42
2018-09-04T01:58:47.409Z,18.34
2018-09-04T02:01:17.154Z,18.31
2018-09-04T02:03:46.568Z,18.32
2018-09-04T02:06:16.043Z,18.20
2018-09-04T02:08:45.547Z,18.07
2018-09-04T02:11:15.075Z,17.98
2018-09-04T02:13:44.706Z,17.97
2018-09-04T02:16:14.334Z,18.02
2018-09-04T02:18:43.986Z,17.98
2018-09-04T02:21:13.409Z,17.98
2018-09-04T02:23:43.340Z,18.08
2018-09-04T02:26:12.846Z,18.22
2018-09-04T02:28:42.481Z,18.05
2018-09-04T02:31:11.925Z,17.90
2018-09-04T02:33:41.389Z,17.86
2018-09-04T02:36:10.840Z,17.88
2018-09-04T02:38:40.291Z,17.77
2018-09-04T02:41:10.695Z,17.81
2018-09-04T02:43:40.171Z,17.77
2018-09-04T02:46:09.665Z,17.84
2018-09-04T02:48:39.234Z,17.79
2018-09-04T02:51:08.877Z,17.81
2018-09-04T02:53:38.684Z,17.62
2018-09-04T02:56:08.298Z,17.60
2018-09-04T02:58:37.822Z,17.63
2018-09-04T03:01:07.598Z,17.68
2018-09-04T03:03:37.090Z,17.73
2018-09-04T03:06:06.851Z,17.76
2018-09-04T03:08:52.321Z,17.84
2018-09-04T03:11:21.956Z,17.75
2018-09-04T03:13:52.382Z,17.70
2018-09-04T03:16:21.856Z,17.60
2018-09-04T03:18:51.310Z,17.50
2018-09-04T03:21:22.659Z,17.50
2018-09-04T03:23:52.411Z,17.45
2018-09-04T03:26:22.117Z,17.41
2018-09-04T03:28:51.688Z,17.34
2018-09-04T03:31:21.462Z,17.30
2018-09-04T03:33:51.712Z,17.25
2018-09-04T03:36:21.512Z,17.21
2018-09-04T03:38:51.135Z,17.21
2018-09-04T03:41:20.880Z,17.21
2018-09-04T03:43:50.488Z,17.12
2018-09-04T03:46:20.139Z,17.04
2018-09-04T03:48:50.113Z,17.06
2018-09-04T03:51:19.775Z,17.02
2018-09-04T03:53:49.443Z,16.99
2018-09-04T03:56:19.419Z,16.91
2018-09-04T03:58:49.239Z,17.02
2018-09-04T04:01:18.903Z,17.09
2018-09-04T04:03:49.165Z,17.10
2018-09-04T04:06:18.792Z,17.03
2018-09-04T04:08:48.568Z,17.01
2018-09-04T04:11:18.513Z,16.96
2018-09-04T04:13:48.186Z,17.06
2018-09-04T04:16:17.956Z,17.02
2018-09-04T04:18:47.846Z,17.02
2018-09-04T04:21:17.329Z,17.01
2018-09-04T04:23:46.983Z,17.09
2018-09-04T04:26:16.651Z,17.06
2018-09-04T04:28:46.434Z,16.93
2018-09-04T04:31:16.313Z,17.09
2018-09-04T04:33:46.006Z,17.17
2018-09-04T04:36:15.674Z,17.04
2018-09-04T04:38:45.228Z,17.26
2018-09-04T04:41:14.968Z,16.81
2018-09-04T04:43:44.934Z,17.47
2018-09-04T04:46:14.588Z,17.61
2018-09-04T04:48:44.326Z,18.07
2018-09-04T04:51:14.165Z,18.87
2018-09-04T04:53:43.835Z,19.69
2018-09-04T04:56:13.433Z,20.71
2018-09-04T04:58:43.101Z,21.42
2018-09-04T05:01:12.697Z,22.09
2018-09-04T05:03:42.539Z,22.33
2018-09-04T05:06:12.066Z,23.20
2018-09-04T05:08:41.803Z,23.81
2018-09-04T05:11:11.420Z,24.30
2018-09-04T05:13:40.888Z,24.59
2018-09-04T05:16:10.532Z,24.89
2018-09-04T05:18:40.208Z,24.87
2018-09-04T05:21:09.980Z,24.78
2018-09-04T05:23:39.546Z,25.16
2018-09-04T05:26:09.308Z,25.43
2018-09-04T05:28:39.011Z,25.86
2018-09-04T05:31:08.915Z,25.80
2018-09-04T05:33:42.456Z,26.04
2018-09-04T05:36:12.391Z,26.20
2018-09-04T05:38:42.217Z,26.92
2018-09-04T05:41:12.030Z,26.94
2018-09-04T05:43:50.950Z,27.80
2018-09-04T05:46:31.539Z,27.52
2018-09-04T05:49:01.650Z,27.76
2018-09-04T05:51:31.246Z,27.79
2018-09-04T05:54:01.296Z,28.11
2018-09-04T05:56:31.296Z,28.60
2018-09-04T05:59:01.273Z,29.03
2018-09-04T06:01:30.912Z,29.10
2018-09-04T06:04:00.615Z,28.73
2018-09-04T06:06:30.286Z,28.54
2018-09-04T06:08:59.858Z,28.44
2018-09-04T06:11:30.016Z,29.25
2018-09-04T06:14:00.081Z,29.18
2018-09-04T06:16:29.899Z,29.27
2018-09-04T06:18:59.586Z,29.77
2018-09-04T06:21:29.248Z,29.46
2018-09-04T06:23:58.751Z,29.46
2018-09-04T06:26:28.400Z,29.60
2018-09-04T06:28:58.267Z,29.87
2018-09-04T06:31:27.805Z,29.93
2018-09-04T06:33:57.790Z,30.26
2018-09-04T06:36:27.638Z,31.03
2018-09-04T06:38:57.240Z,31.17
2018-09-04T06:41:26.800Z,31.11
2018-09-04T06:43:56.536Z,30.80
2018-09-04T06:46:26.336Z,30.75
2018-09-04T06:48:56.820Z,30.90
2018-09-04T06:51:26.610Z,31.07
2018-09-04T06:53:56.153Z,31.59
2018-09-04T06:56:25.779Z,32.28
2018-09-04T06:58:55.530Z,32.56
2018-09-04T07:01:25.028Z,31.92
2018-09-04T07:03:54.775Z,32.21
2018-09-04T07:06:24.500Z,32.04
2018-09-04T07:08:54.908Z,32.61
2018-09-04T07:11:24.463Z,32.56
2018-09-04T07:13:54.112Z,32.99
2018-09-04T07:16:23.860Z,32.71
2018-09-04T07:18:53.821Z,33.06
2018-09-04T07:21:23.443Z,32.89
2018-09-04T07:23:53.161Z,32.67
2018-09-04T07:26:22.911Z,32.12
2018-09-04T07:28:52.583Z,33.26
2018-09-04T07:31:22.516Z,32.30
2018-09-04T07:33:52.208Z,32.92
2018-09-04T07:36:21.903Z,32.35
2018-09-04T07:38:51.506Z,33.23
2018-09-04T07:41:21.315Z,32.14
2018-09-04T07:43:51.047Z,32.55
2018-09-04T07:46:20.600Z,32.75
2018-09-04T07:48:50.150Z,32.52
2018-09-04T07:51:19.895Z,32.05
2018-09-04T07:53:49.835Z,33.50
2018-09-04T07:56:19.654Z,33.38
2018-09-04T07:58:49.491Z,32.75
2018-09-04T08:01:19.203Z,32.15
2018-09-04T08:03:48.975Z,33.32
2018-09-04T08:06:18.702Z,33.42
2018-09-04T08:08:48.237Z,33.91
2018-09-04T08:11:18.026Z,33.56
2018-09-04T08:13:47.737Z,33.92
2018-09-04T08:16:17.429Z,34.77
2018-09-04T08:18:47.173Z,35.88
2018-09-04T08:21:16.865Z,34.37
2018-09-04T08:23:46.524Z,35.54
2018-09-04T08:26:16.412Z,35.90
2018-09-04T08:28:46.066Z,35.19
2018-09-04T08:31:15.749Z,34.69
2018-09-04T08:33:45.585Z,33.96
2018-09-04T08:36:15.325Z,34.18
2018-09-04T08:38:50.791Z,34.64
2018-09-04T08:41:20.783Z,35.07
2018-09-04T08:43:50.948Z,36.08
2018-09-04T08:46:20.697Z,37.11
2018-09-04T08:48:50.653Z,35.81
2018-09-04T08:51:20.988Z,35.53
2018-09-04T08:53:50.566Z,36.21
2018-09-04T08:56:20.196Z,35.70
2018-09-04T08:58:50.530Z,36.96
2018-09-04T09:01:21.098Z,35.06
2018-09-04T09:03:50.676Z,36.62
2018-09-04T09:06:20.057Z,37.05
2018-09-04T09:08:49.477Z,36.39
2018-09-04T09:11:18.973Z,36.85
2018-09-04T09:13:48.569Z,36.35
2018-09-04T09:16:18.040Z,35.84
2018-09-04T09:18:47.479Z,36.33
2018-09-04T09:21:17.217Z,36.37
2018-09-04T09:23:46.822Z,35.47
2018-09-04T09:26:16.300Z,35.21
2018-09-04T09:28:45.900Z,36.42
2018-09-04T09:31:15.394Z,36.75
2018-09-04T09:33:45.073Z,36.50
2018-09-04T09:36:14.748Z,35.52
2018-09-04T09:38:44.203Z,35.89
2018-09-04T09:41:13.671Z,35.10
2018-09-04T09:43:43.277Z,35.82
2018-09-04T09:46:12.813Z,35.08
2018-09-04T09:48:43.216Z,35.01
2018-09-04T09:51:13.452Z,35.51
2018-09-04T09:53:42.977Z,35.71
2018-09-04T09:56:12.697Z,36.00
2018-09-04T09:58:42.376Z,36.62
2018-09-04T10:01:17.079Z,35.64
2018-09-04T10:03:51.500Z,35.49
2018-09-04T10:06:21.738Z,36.16
2018-09-04T10:08:51.362Z,37.22
2018-09-04T10:11:20.919Z,37.88
2018-09-04T10:13:50.660Z,37.58
2018-09-04T10:16:20.402Z,36.71
2018-09-04T10:18:50.241Z,35.97
2018-09-04T10:21:19.949Z,36.18
2018-09-04T10:23:49.591Z,37.73
2018-09-04T10:26:19.286Z,37.68
2018-09-04T10:28:49.132Z,36.21
2018-09-04T10:31:18.591Z,35.07
2018-09-04T10:33:48.050Z,35.43
2018-09-04T10:36:17.564Z,36.48
2018-09-04T10:38:46.965Z,36.90
2018-09-04T10:41:16.744Z,38.42
2018-09-04T10:43:46.297Z,37.53
2018-09-04T10:46:16.194Z,37.36
2018-09-04T10:48:45.825Z,36.64
2018-09-04T10:51:15.628Z,36.69
2018-09-04T10:53:45.106Z,36.04
2018-09-04T10:56:14.865Z,36.52
2018-09-04T10:58:44.396Z,36.59
2018-09-04T11:01:13.974Z,36.41
2018-09-04T11:03:43.420Z,37.17
2018-09-04T11:06:14.396Z,36.37
2018-09-04T11:08:43.902Z,35.79
2018-09-04T11:11:13.487Z,36.27
2018-09-04T11:13:43.537Z,36.61
2018-09-04T11:16:13.086Z,35.90
2018-09-04T11:18:42.559Z,35.27
2018-09-04T11:21:12.067Z,37.19
2018-09-04T11:23:42.678Z,35.56
2018-09-04T11:26:12.331Z,36.64
2018-09-04T11:28:49.515Z,36.26
2018-09-04T11:31:19.440Z,36.70
2018-09-04T11:33:50.010Z,36.54
2018-09-04T11:36:19.526Z,36.10
2018-09-04T11:38:48.985Z,37.78
2018-09-04T11:41:18.543Z,37.09
2018-09-04T11:43:48.836Z,37.18
2018-09-04T11:46:18.225Z,36.20
2018-09-04T11:48:47.646Z,35.85
2018-09-04T11:51:17.419Z,36.54
2018-09-04T11:53:47.306Z,35.67
2018-09-04T11:56:20.020Z,35.19
2018-09-04T11:58:50.047Z,34.16
2018-09-04T12:01:25.408Z,33.71
2018-09-04T12:03:54.945Z,33.01
2018-09-04T12:06:24.492Z,32.31
2018-09-04T12:08:54.274Z,32.14
2018-09-04T12:11:24.114Z,31.92
2018-09-04T12:13:53.509Z,31.66
2018-09-04T12:16:23.094Z,31.48
2018-09-04T12:18:52.880Z,31.61
2018-09-04T12:21:22.396Z,31.43
2018-09-04T12:23:52.174Z,31.51
2018-09-04T12:26:21.615Z,31.55
2018-09-04T12:28:51.149Z,31.74
2018-09-04T12:31:20.695Z,31.52
2018-09-04T12:33:50.168Z,31.58
2018-09-04T12:36:19.864Z,31.49
2018-09-04T12:38:49.370Z,31.43
2018-09-04T12:41:19.265Z,31.23
2018-09-04T12:43:48.681Z,31.22
2018-09-04T12:46:18.219Z,31.27
2018-09-04T12:48:50.082Z,31.15
2018-09-04T12:51:19.705Z,31.12
2018-09-04T12:53:49.260Z,31.04
2018-09-04T12:56:19.393Z,31.42
2018-09-04T12:58:48.798Z,31.53
2018-09-04T13:01:18.514Z,31.58
2018-09-04T13:03:48.521Z,31.42
2018-09-04T13:06:18.026Z,31.53
2018-09-04T13:08:47.443Z,31.47
2018-09-04T13:11:16.951Z,31.63
2018-09-04T13:13:46.465Z,31.70
2018-09-04T13:16:16.269Z,31.50
2018-09-04T13:18:45.842Z,31.48
2018-09-04T13:21:15.813Z,31.32
2018-09-04T13:23:45.273Z,31.40
2018-09-04T13:28:40.747Z,31.44
2018-09-04T13:31:10.246Z,31.42
2018-09-04T13:33:40.731Z,31.46
2018-09-04T13:36:10.577Z,31.58
2018-09-04T13:38:40.079Z,31.68
2018-09-04T13:41:09.991Z,31.51
2018-09-04T13:43:40.278Z,31.62
2018-09-04T13:46:09.900Z,31.67
2018-09-04T13:48:39.269Z,31.63
2018-09-04T13:51:09.124Z,31.61
2018-09-04T13:53:38.798Z,31.56
2018-09-04T13:56:08.219Z,31.49
2018-09-04T13:58:37.563Z,31.61
2018-09-04T14:01:07.316Z,31.51
2018-09-04T14:03:36.749Z,31.40
2018-09-04T14:06:06.623Z,31.31
2018-09-04T14:08:36.266Z,31.14
2018-09-04T14:11:05.840Z,31.18
2018-09-04T14:13:35.610Z,31.22
2018-09-04T14:16:07.941Z,31.25
2018-09-04T14:18:37.479Z,31.02
2018-09-04T14:21:07.474Z,30.90
2018-09-04T14:23:37.093Z,30.89
2018-09-04T14:26:06.457Z,30.90
2018-09-04T14:28:42.889Z,31.15
2018-09-04T14:31:05.501Z,31.13
2018-09-04T14:33:35.083Z,31.35
2018-09-04T14:36:04.614Z,31.47
2018-09-04T14:38:34.287Z,31.58
2018-09-04T14:41:04.119Z,31.60
2018-09-04T14:43:33.679Z,31.52
2018-09-04T14:46:03.300Z,31.56
2018-09-04T14:48:32.924Z,31.43
2018-09-04T14:51:02.394Z,31.37
2018-09-04T14:53:31.821Z,31.20
2018-09-04T14:56:01.275Z,31.17
2018-09-04T14:58:30.764Z,31.12
2018-09-04T15:01:00.219Z,30.97
2018-09-04T15:03:29.646Z,31.00
2018-09-04T15:05:59.657Z,31.05
2018-09-04T15:08:29.322Z,30.96
2018-09-04T15:10:58.889Z,30.92
2018-09-04T15:13:28.161Z,30.94
2018-09-04T15:15:57.644Z,30.80
2018-09-04T15:18:27.321Z,30.90
2018-09-04T15:20:56.852Z,30.62
2018-09-04T15:23:26.326Z,30.56
2018-09-04T15:25:55.868Z,30.60
2018-09-04T15:28:25.530Z,30.61
2018-09-04T15:30:55.010Z,30.59
2018-09-04T15:33:24.426Z,30.46
2018-09-04T15:35:53.748Z,30.43
2018-09-04T15:38:23.278Z,30.37
2018-09-04T15:40:52.688Z,30.36
2018-09-04T15:43:22.201Z,30.29
2018-09-04T15:45:51.665Z,30.29
2018-09-04T15:48:21.132Z,30.22
2018-09-04T15:50:50.765Z,30.23
2018-09-04T15:53:20.221Z,30.13
2018-09-04T15:55:49.656Z,29.67
2018-09-04T15:58:19.134Z,30.00
2018-09-04T16:00:48.842Z,29.91
2018-09-04T16:03:18.373Z,29.85
2018-09-04T16:05:47.851Z,29.78
2018-09-04T16:08:17.274Z,29.65
2018-09-04T16:10:46.733Z,29.64
2018-09-04T16:13:16.158Z,29.53
2018-09-04T16:15:46.480Z,29.50
2018-09-04T16:18:16.560Z,29.42
2018-09-04T16:20:46.169Z,29.36
2018-09-04T16:23:15.819Z,29.30
2018-09-04T16:25:45.661Z,29.21
2018-09-04T16:28:15.127Z,29.25
2018-09-04T16:30:44.534Z,29.07
2018-09-04T16:33:14.709Z,28.92
2018-09-04T16:35:44.510Z,28.80
2018-09-04T16:38:13.966Z,28.57
2018-09-04T16:40:43.403Z,28.44
2018-09-04T16:43:12.901Z,28.14
2018-09-04T16:45:42.476Z,27.95
2018-09-04T16:48:11.918Z,27.86
2018-09-04T16:50:41.412Z,27.73
2018-09-04T16:53:11.806Z,27.59
2018-09-04T16:55:42.252Z,27.54
2018-09-04T16:58:11.738Z,27.39
2018-09-04T17:00:41.727Z,27.30
2018-09-04T17:03:11.211Z,27.16
2018-09-04T17:05:40.862Z,27.09
2018-09-04T17:08:10.369Z,27.03
2018-09-04T17:10:39.901Z,26.93
2018-09-04T17:13:09.635Z,26.89
2018-09-04T17:15:39.107Z,26.78
2018-09-04T17:18:08.558Z,26.68
2018-09-04T17:20:38.127Z,26.61
2018-09-04T17:23:09.343Z,26.64
2018-09-04T17:25:39.265Z,26.63
2018-09-04T17:28:08.902Z,26.57
2018-09-04T17:30:38.370Z,26.46
2018-09-04T17:33:07.934Z,26.43
2018-09-04T17:35:37.687Z,26.41
2018-09-04T17:38:07.393Z,26.33
2018-09-04T17:40:37.655Z,26.34
2018-09-04T17:43:07.436Z,26.25
2018-09-04T17:45:37.800Z,26.16
2018-09-04T17:48:07.759Z,26.10
2018-09-04T17:50:37.248Z,25.46
2018-09-04T17:53:07.208Z,25.97
2018-09-04T17:55:36.802Z,26.02
2018-09-04T17:58:06.369Z,26.01
2018-09-04T18:00:35.868Z,25.90
2018-09-04T18:03:05.427Z,25.78
2018-09-04T18:05:34.886Z,25.73
2018-09-04T18:08:04.366Z,25.76
2018-09-04T18:10:33.792Z,25.71
2018-09-04T18:13:03.213Z,25.67
2018-09-04T18:15:32.645Z,25.67
2018-09-04T18:18:02.328Z,25.67
2018-09-04T18:20:32.679Z,25.57
2018-09-04T18:23:02.122Z,25.61
2018-09-04T18:25:31.814Z,25.67
2018-09-04T18:28:01.435Z,25.62
2018-09-04T18:30:30.871Z,25.59
2018-09-04T18:33:00.437Z,25.54
2018-09-04T18:35:29.879Z,25.55
2018-09-04T18:37:59.279Z,25.52
2018-09-04T18:40:28.755Z,25.49
2018-09-04T18:42:58.180Z,25.46
2018-09-04T18:45:52.264Z,25.40
2018-09-04T18:48:21.690Z,25.29
2018-09-04T18:50:51.221Z,25.28
2018-09-04T18:53:20.909Z,25.29
2018-09-04T18:55:50.691Z,25.23
2018-09-04T18:58:20.409Z,25.17
2018-09-04T19:00:49.920Z,25.12
2018-09-04T19:03:20.155Z,25.07
2018-09-04T19:05:49.741Z,24.97
2018-09-04T19:08:19.296Z,24.89
2018-09-04T19:10:48.698Z,24.91
2018-09-04T19:13:18.180Z,24.87
2018-09-04T19:15:47.610Z,24.78
2018-09-04T19:18:17.079Z,24.79
2018-09-04T19:20:46.590Z,24.70
2018-09-04T19:23:16.401Z,24.65
2018-09-04T19:25:45.902Z,24.51
2018-09-04T19:28:15.226Z,24.42
2018-09-04T19:30:44.659Z,24.36
2018-09-04T19:33:14.249Z,24.34
2018-09-04T19:35:43.587Z,24.28
2018-09-04T19:38:13.038Z,24.37
2018-09-04T19:40:43.182Z,24.30
2018-09-04T19:43:12.610Z,24.33
2018-09-04T19:45:42.473Z,24.41
2018-09-04T19:48:12.013Z,24.53
2018-09-04T19:50:41.729Z,24.54
2018-09-04T19:53:11.192Z,24.58
2018-09-04T19:55:40.558Z,24.73
2018-09-04T19:58:09.859Z,24.73
2018-09-04T20:00:39.203Z,24.70
2018-09-04T20:03:08.706Z,24.75
2018-09-04T20:05:38.201Z,24.66
2018-09-04T20:08:07.740Z,24.72
2018-09-04T20:10:37.487Z,24.78
2018-09-04T20:13:09.037Z,24.74
2018-09-04T20:15:38.571Z,24.86
2018-09-04T20:18:07.921Z,24.91
2018-09-04T20:20:37.917Z,24.87
2018-09-04T20:23:07.363Z,24.73
2018-09-04T20:25:37.089Z,24.69
2018-09-04T20:28:06.644Z,24.58
2018-09-04T20:30:36.258Z,24.48
2018-09-04T20:33:05.794Z,24.25
2018-09-04T20:35:35.226Z,24.27
2018-09-04T20:38:04.837Z,24.20
2018-09-04T20:40:34.273Z,24.11
2018-09-04T20:43:03.672Z,23.90
2018-09-04T20:45:33.204Z,24.10
2018-09-04T20:48:02.522Z,23.72
2018-09-04T20:50:31.988Z,23.65
2018-09-04T20:53:01.263Z,23.64
2018-09-04T20:55:31.080Z,23.78
2018-09-04T20:58:11.452Z,23.77
2018-09-04T21:00:51.471Z,23.69
2018-09-04T21:03:31.978Z,23.78
2018-09-04T21:06:12.271Z,23.61
2018-09-04T21:08:51.415Z,23.44
2018-09-04T21:11:20.953Z,23.24
2018-09-04T21:13:50.906Z,23.15
2018-09-04T21:16:21.048Z,23.16
2018-09-04T21:18:51.183Z,23.12
2018-09-04T21:21:21.091Z,23.17
2018-09-04T21:23:51.078Z,23.15
2018-09-04T21:26:20.749Z,23.07
2018-09-04T21:28:50.337Z,23.02
2018-09-04T21:31:20.042Z,22.96
2018-09-04T21:33:49.835Z,22.97
2018-09-04T21:36:19.327Z,22.94
2018-09-04T21:38:49.524Z,22.97
2018-09-04T21:41:19.268Z,22.96
2018-09-04T21:43:48.809Z,23.01
2018-09-04T21:46:18.374Z,22.91
2018-09-04T21:48:47.853Z,22.82
2018-09-04T21:51:17.519Z,22.86
2018-09-04T21:53:47.198Z,22.93
2018-09-04T21:56:16.702Z,22.90
2018-09-04T21:58:46.382Z,23.01
2018-09-04T22:01:18.258Z,22.74
2018-09-04T22:06:16.825Z,22.64
2018-09-04T22:08:46.807Z,22.62
2018-09-04T22:11:16.298Z,22.59
2018-09-04T22:13:45.935Z,22.54
2018-09-04T22:16:15.518Z,22.50
2018-09-04T22:18:45.112Z,22.54
2018-09-04T22:21:14.996Z,22.38
2018-09-04T22:23:44.843Z,22.20
2018-09-04T22:26:15.826Z,21.85
2018-09-04T22:28:45.648Z,21.75
2018-09-04T22:31:15.283Z,21.72
2018-09-04T22:33:44.828Z,21.55
2018-09-04T22:36:15.204Z,21.47
2018-09-04T22:38:44.945Z,21.52
2018-09-04T22:41:14.843Z,21.53
2018-09-04T22:43:45.185Z,21.47
2018-09-04T22:46:14.846Z,21.53
2018-09-04T22:48:44.496Z,21.47
2018-09-04T22:51:19.030Z,21.51
2018-09-04T22:53:48.579Z,21.53
2018-09-04T22:56:18.240Z,21.58
2018-09-04T22:58:48.006Z,21.62
2018-09-04T23:01:17.533Z,21.62
2018-09-04T23:03:47.118Z,21.61
2018-09-04T23:06:16.997Z,21.64
2018-09-04T23:08:46.446Z,21.71
2018-09-04T23:11:15.958Z,21.65
2018-09-04T23:13:45.712Z,21.63
2018-09-04T23:16:15.267Z,21.56
2018-09-04T23:18:44.802Z,21.62
2018-09-04T23:21:14.523Z,21.60
2018-09-04T23:23:44.304Z,21.46
2018-09-04T23:26:13.995Z,21.35
2018-09-04T23:28:43.905Z,21.35
2018-09-04T23:31:13.642Z,21.34
2018-09-04T23:33:43.282Z,21.34
2018-09-04T23:36:12.989Z,21.16
2018-09-04T23:38:42.565Z,21.26
2018-09-04T23:41:12.072Z,21.23
2018-09-04T23:43:42.052Z,21.13
2018-09-04T23:46:11.802Z,21.12
2018-09-04T23:48:41.456Z,21.06
2018-09-04T23:51:11.490Z,21.06
2018-09-04T23:53:41.204Z,20.98
2018-09-04T23:56:11.074Z,20.97
2018-09-04T23:58:41.032Z,21.00
